sensor_id;sensor_type;location;lat;lon;timestamp;temperature;humidity
27667;DHT22;15074;50.940;5.282;2024-03-22T00:01:50;12.10;99.90
27667;DHT22;15074;50.940;5.282;2024-03-22T00:04:16;12.10;99.90
27667;DHT22;15074;50.940;5.282;2024-03-22T00:06:43;12.10;99.90
27667;DHT22;15074;50.940;5.282;2024-03-22T00:09:09;12.10;99.90
27667;DHT22;15074;50.940;5.282;2024-03-22T00:11:35;12.10;99.90
27667;DHT22;15074;50.940;5.282;2024-03-22T00:14:02;12.10;99.90
27667;DHT22;15074;50.940;5.282;2024-03-22T00:16:28;12.20;99.90
27667;DHT22;15074;50.940;5.282;2024-03-22T00:18:53;12.20;99.90
27667;DHT22;15074;50.940;5.282;2024-03-22T00:21:19;12.20;99.90
27667;DHT22;15074;50.940;5.282;2024-03-22T00:23:45;12.20;99.90
27667;DHT22;15074;50.940;5.282;2024-03-22T00:26:11;12.20;99.90
27667;DHT22;15074;50.940;5.282;2024-03-22T00:28:37;12.20;99.90
27667;DHT22;15074;50.940;5.282;2024-03-22T00:31:02;12.10;99.90
27667;DHT22;15074;50.940;5.282;2024-03-22T00:33:28;12.10;99.90
27667;DHT22;15074;50.940;5.282;2024-03-22T00:35:53;12.10;99.90
27667;DHT22;15074;50.940;5.282;2024-03-22T00:38:19;12.10;99.90
27667;DHT22;15074;50.940;5.282;2024-03-22T00:40:45;12.10;99.90
27667;DHT22;15074;50.940;5.282;2024-03-22T00:43:10;12.10;99.90
27667;DHT22;15074;50.940;5.282;2024-03-22T00:45:36;12.20;99.90
27667;DHT22;15074;50.940;5.282;2024-03-22T00:48:01;12.20;99.90
27667;DHT22;15074;50.940;5.282;2024-03-22T00:50:27;12.20;99.90
27667;DHT22;15074;50.940;5.282;2024-03-22T00:52:54;12.30;99.90
27667;DHT22;15074;50.940;5.282;2024-03-22T00:55:22;12.30;99.90
27667;DHT22;15074;50.940;5.282;2024-03-22T00:57:47;12.20;99.90
27667;DHT22;15074;50.940;5.282;2024-03-22T01:00:13;12.20;99.90
27667;DHT22;15074;50.940;5.282;2024-03-22T01:02:40;12.20;99.90
27667;DHT22;15074;50.940;5.282;2024-03-22T01:05:05;12.20;99.90
27667;DHT22;15074;50.940;5.282;2024-03-22T01:07:31;12.20;99.90
27667;DHT22;15074;50.940;5.282;2024-03-22T01:09:57;12.20;99.90
27667;DHT22;15074;50.940;5.282;2024-03-22T01:12:22;12.20;99.90
27667;DHT22;15074;50.940;5.282;2024-03-22T01:14:48;12.30;99.90
27667;DHT22;15074;50.940;5.282;2024-03-22T01:17:13;12.30;99.90
27667;DHT22;15074;50.940;5.282;2024-03-22T01:19:39;12.20;99.90
27667;DHT22;15074;50.940;5.282;2024-03-22T01:22:05;12.20;99.90
27667;DHT22;15074;50.940;5.282;2024-03-22T01:24:30;12.30;99.90
27667;DHT22;15074;50.940;5.282;2024-03-22T01:26:56;12.30;99.90
27667;DHT22;15074;50.940;5.282;2024-03-22T01:29:21;12.20;99.90
27667;DHT22;15074;50.940;5.282;2024-03-22T01:31:47;12.30;99.90
27667;DHT22;15074;50.940;5.282;2024-03-22T01:34:13;12.30;99.90
27667;DHT22;15074;50.940;5.282;2024-03-22T01:36:40;12.20;99.90
27667;DHT22;15074;50.940;5.282;2024-03-22T01:39:05;12.20;99.90
27667;DHT22;15074;50.940;5.282;2024-03-22T01:41:31;12.30;99.90
27667;DHT22;15074;50.940;5.282;2024-03-22T01:43:58;12.30;99.90
27667;DHT22;15074;50.940;5.282;2024-03-22T01:46:24;12.20;99.90
27667;DHT22;15074;50.940;5.282;2024-03-22T01:48:50;12.20;99.90
27667;DHT22;15074;50.940;5.282;2024-03-22T01:51:16;12.20;99.90
27667;DHT22;15074;50.940;5.282;2024-03-22T01:53:42;12.20;99.90
27667;DHT22;15074;50.940;5.282;2024-03-22T01:56:08;12.20;99.90
27667;DHT22;15074;50.940;5.282;2024-03-22T01:58:35;12.20;99.90
27667;DHT22;15074;50.940;5.282;2024-03-22T02:01:00;12.20;99.90
27667;DHT22;15074;50.940;5.282;2024-03-22T02:03:27;12.30;99.90
27667;DHT22;15074;50.940;5.282;2024-03-22T02:05:53;12.20;99.90
27667;DHT22;15074;50.940;5.282;2024-03-22T02:08:19;12.20;99.90
27667;DHT22;15074;50.940;5.282;2024-03-22T02:10:45;12.30;99.90
27667;DHT22;15074;50.940;5.282;2024-03-22T02:13:10;12.30;99.90
27667;DHT22;15074;50.940;5.282;2024-03-22T02:15:36;12.30;99.90
27667;DHT22;15074;50.940;5.282;2024-03-22T02:18:02;12.30;99.90
27667;DHT22;15074;50.940;5.282;2024-03-22T02:20:28;12.30;99.90
27667;DHT22;15074;50.940;5.282;2024-03-22T02:22:53;12.30;99.90
27667;DHT22;15074;50.940;5.282;2024-03-22T02:25:19;12.30;99.90
27667;DHT22;15074;50.940;5.282;2024-03-22T02:27:44;12.40;99.90
27667;DHT22;15074;50.940;5.282;2024-03-22T02:30:10;12.30;99.90
27667;DHT22;15074;50.940;5.282;2024-03-22T02:32:36;12.30;99.90
27667;DHT22;15074;50.940;5.282;2024-03-22T02:35:03;12.30;99.90
27667;DHT22;15074;50.940;5.282;2024-03-22T02:37:28;12.30;99.90
27667;DHT22;15074;50.940;5.282;2024-03-22T02:39:54;12.20;99.90
27667;DHT22;15074;50.940;5.282;2024-03-22T02:42:19;12.20;99.90
27667;DHT22;15074;50.940;5.282;2024-03-22T02:44:45;12.20;99.90
27667;DHT22;15074;50.940;5.282;2024-03-22T02:47:11;12.20;99.90
27667;DHT22;15074;50.940;5.282;2024-03-22T02:49:40;12.20;99.90
27667;DHT22;15074;50.940;5.282;2024-03-22T02:52:05;12.10;99.90
27667;DHT22;15074;50.940;5.282;2024-03-22T02:54:31;12.10;99.90
27667;DHT22;15074;50.940;5.282;2024-03-22T02:56:57;12.10;99.90
27667;DHT22;15074;50.940;5.282;2024-03-22T02:59:25;12.00;99.90
27667;DHT22;15074;50.940;5.282;2024-03-22T03:01:52;11.90;99.90
27667;DHT22;15074;50.940;5.282;2024-03-22T03:04:17;11.90;99.90
27667;DHT22;15074;50.940;5.282;2024-03-22T03:06:43;11.80;99.90
27667;DHT22;15074;50.940;5.282;2024-03-22T03:09:11;11.70;99.90
27667;DHT22;15074;50.940;5.282;2024-03-22T03:11:38;11.60;99.90
27667;DHT22;15074;50.940;5.282;2024-03-22T03:14:04;11.60;99.90
27667;DHT22;15074;50.940;5.282;2024-03-22T03:16:30;11.50;99.90
27667;DHT22;15074;50.940;5.282;2024-03-22T03:18:57;11.50;99.90
27667;DHT22;15074;50.940;5.282;2024-03-22T03:21:22;11.50;99.90
27667;DHT22;15074;50.940;5.282;2024-03-22T03:23:48;11.60;99.90
27667;DHT22;15074;50.940;5.282;2024-03-22T03:26:14;11.60;99.90
27667;DHT22;15074;50.940;5.282;2024-03-22T03:28:39;11.60;99.90
27667;DHT22;15074;50.940;5.282;2024-03-22T03:31:05;11.70;99.90
27667;DHT22;15074;50.940;5.282;2024-03-22T03:33:31;11.70;99.90
27667;DHT22;15074;50.940;5.282;2024-03-22T03:35:56;11.80;99.90
27667;DHT22;15074;50.940;5.282;2024-03-22T03:38:22;11.80;99.90
27667;DHT22;15074;50.940;5.282;2024-03-22T03:40:48;11.80;99.90
27667;DHT22;15074;50.940;5.282;2024-03-22T03:43:13;11.70;99.90
27667;DHT22;15074;50.940;5.282;2024-03-22T03:45:39;11.70;99.90
27667;DHT22;15074;50.940;5.282;2024-03-22T03:48:05;11.70;99.90
27667;DHT22;15074;50.940;5.282;2024-03-22T03:50:31;11.70;99.90
27667;DHT22;15074;50.940;5.282;2024-03-22T03:52:57;11.70;99.90
27667;DHT22;15074;50.940;5.282;2024-03-22T03:55:23;11.70;99.90
27667;DHT22;15074;50.940;5.282;2024-03-22T03:57:52;11.70;99.90
27667;DHT22;15074;50.940;5.282;2024-03-22T04:00:19;11.80;99.90
27667;DHT22;15074;50.940;5.282;2024-03-22T04:02:45;11.80;99.90
27667;DHT22;15074;50.940;5.282;2024-03-22T04:05:12;11.90;99.90
27667;DHT22;15074;50.940;5.282;2024-03-22T04:07:38;11.80;99.90
27667;DHT22;15074;50.940;5.282;2024-03-22T04:10:05;11.70;99.90
27667;DHT22;15074;50.940;5.282;2024-03-22T04:12:31;11.70;99.90
27667;DHT22;15074;50.940;5.282;2024-03-22T04:14:57;11.80;99.90
27667;DHT22;15074;50.940;5.282;2024-03-22T04:17:22;11.80;99.90
27667;DHT22;15074;50.940;5.282;2024-03-22T04:19:49;11.80;99.90
27667;DHT22;15074;50.940;5.282;2024-03-22T04:22:15;11.90;99.90
27667;DHT22;15074;50.940;5.282;2024-03-22T04:24:40;11.90;99.90
27667;DHT22;15074;50.940;5.282;2024-03-22T04:27:06;11.80;99.90
27667;DHT22;15074;50.940;5.282;2024-03-22T04:29:33;11.90;99.90
27667;DHT22;15074;50.940;5.282;2024-03-22T04:31:58;11.90;99.90
27667;DHT22;15074;50.940;5.282;2024-03-22T04:34:24;11.80;99.90
27667;DHT22;15074;50.940;5.282;2024-03-22T04:36:50;11.80;99.90
27667;DHT22;15074;50.940;5.282;2024-03-22T04:39:19;11.80;99.90
27667;DHT22;15074;50.940;5.282;2024-03-22T04:41:45;11.80;99.90
27667;DHT22;15074;50.940;5.282;2024-03-22T04:44:10;11.80;99.90
27667;DHT22;15074;50.940;5.282;2024-03-22T04:46:36;11.90;99.90
27667;DHT22;15074;50.940;5.282;2024-03-22T04:49:02;11.80;99.90
27667;DHT22;15074;50.940;5.282;2024-03-22T04:51:27;11.80;99.90
27667;DHT22;15074;50.940;5.282;2024-03-22T04:53:53;11.90;99.90
27667;DHT22;15074;50.940;5.282;2024-03-22T04:56:18;11.80;99.90
27667;DHT22;15074;50.940;5.282;2024-03-22T04:58:44;11.80;99.90
27667;DHT22;15074;50.940;5.282;2024-03-22T05:01:10;11.90;99.90
27667;DHT22;15074;50.940;5.282;2024-03-22T05:03:38;11.80;99.90
27667;DHT22;15074;50.940;5.282;2024-03-22T05:06:04;11.80;99.90
27667;DHT22;15074;50.940;5.282;2024-03-22T05:08:31;11.80;99.90
27667;DHT22;15074;50.940;5.282;2024-03-22T05:10:57;11.90;99.90
27667;DHT22;15074;50.940;5.282;2024-03-22T05:13:23;11.90;99.90
27667;DHT22;15074;50.940;5.282;2024-03-22T05:15:48;11.90;99.90
27667;DHT22;15074;50.940;5.282;2024-03-22T05:18:14;11.90;99.90
27667;DHT22;15074;50.940;5.282;2024-03-22T05:20:40;11.90;99.90
27667;DHT22;15074;50.940;5.282;2024-03-22T05:23:05;11.90;99.90
27667;DHT22;15074;50.940;5.282;2024-03-22T05:25:31;11.90;99.90
27667;DHT22;15074;50.940;5.282;2024-03-22T05:27:56;11.90;99.90
27667;DHT22;15074;50.940;5.282;2024-03-22T05:30:22;11.90;99.90
27667;DHT22;15074;50.940;5.282;2024-03-22T05:32:48;11.80;99.90
27667;DHT22;15074;50.940;5.282;2024-03-22T05:35:15;11.80;99.90
27667;DHT22;15074;50.940;5.282;2024-03-22T05:37:41;11.80;99.90
27667;DHT22;15074;50.940;5.282;2024-03-22T05:40:07;11.70;99.90
27667;DHT22;15074;50.940;5.282;2024-03-22T05:42:34;11.80;99.90
27667;DHT22;15074;50.940;5.282;2024-03-22T05:44:59;11.70;99.90
27667;DHT22;15074;50.940;5.282;2024-03-22T05:47:25;11.80;99.90
27667;DHT22;15074;50.940;5.282;2024-03-22T05:49:51;11.80;99.90
27667;DHT22;15074;50.940;5.282;2024-03-22T05:52:17;11.80;99.90
27667;DHT22;15074;50.940;5.282;2024-03-22T05:54:43;11.80;99.90
27667;DHT22;15074;50.940;5.282;2024-03-22T05:57:09;11.80;99.90
27667;DHT22;15074;50.940;5.282;2024-03-22T05:59:36;11.80;99.90
27667;DHT22;15074;50.940;5.282;2024-03-22T06:02:01;11.90;99.90
27667;DHT22;15074;50.940;5.282;2024-03-22T06:04:27;11.90;99.90
27667;DHT22;15074;50.940;5.282;2024-03-22T06:06:53;11.90;99.90
27667;DHT22;15074;50.940;5.282;2024-03-22T06:09:18;12.00;99.90
27667;DHT22;15074;50.940;5.282;2024-03-22T06:11:53;12.00;99.90
27667;DHT22;15074;50.940;5.282;2024-03-22T06:14:18;11.90;99.90
27667;DHT22;15074;50.940;5.282;2024-03-22T06:16:44;12.00;99.90
27667;DHT22;15074;50.940;5.282;2024-03-22T06:19:10;11.90;99.90
27667;DHT22;15074;50.940;5.282;2024-03-22T06:21:35;12.00;99.90
27667;DHT22;15074;50.940;5.282;2024-03-22T06:24:01;12.00;99.90
27667;DHT22;15074;50.940;5.282;2024-03-22T06:26:26;12.00;99.90
27667;DHT22;15074;50.940;5.282;2024-03-22T06:28:52;12.10;99.90
27667;DHT22;15074;50.940;5.282;2024-03-22T06:31:18;12.10;99.90
27667;DHT22;15074;50.940;5.282;2024-03-22T06:33:43;12.20;99.90
27667;DHT22;15074;50.940;5.282;2024-03-22T06:36:09;12.20;99.90
27667;DHT22;15074;50.940;5.282;2024-03-22T06:38:34;12.20;99.90
27667;DHT22;15074;50.940;5.282;2024-03-22T06:41:00;12.30;99.90
27667;DHT22;15074;50.940;5.282;2024-03-22T06:43:25;12.30;99.90
27667;DHT22;15074;50.940;5.282;2024-03-22T06:45:51;12.20;99.90
27667;DHT22;15074;50.940;5.282;2024-03-22T06:48:17;12.30;99.90
27667;DHT22;15074;50.940;5.282;2024-03-22T06:50:43;12.40;99.90
27667;DHT22;15074;50.940;5.282;2024-03-22T06:53:08;12.30;99.90
27667;DHT22;15074;50.940;5.282;2024-03-22T06:55:37;12.40;99.90
27667;DHT22;15074;50.940;5.282;2024-03-22T06:58:02;12.30;99.90
27667;DHT22;15074;50.940;5.282;2024-03-22T07:00:28;12.30;99.90
27667;DHT22;15074;50.940;5.282;2024-03-22T07:02:54;12.30;99.90
27667;DHT22;15074;50.940;5.282;2024-03-22T07:05:21;12.40;99.90
27667;DHT22;15074;50.940;5.282;2024-03-22T07:07:47;12.30;99.90
27667;DHT22;15074;50.940;5.282;2024-03-22T07:10:13;12.40;99.90
27667;DHT22;15074;50.940;5.282;2024-03-22T07:12:38;12.40;99.90
27667;DHT22;15074;50.940;5.282;2024-03-22T07:15:05;12.50;99.90
27667;DHT22;15074;50.940;5.282;2024-03-22T07:17:31;12.50;99.90
27667;DHT22;15074;50.940;5.282;2024-03-22T07:19:57;12.50;99.90
27667;DHT22;15074;50.940;5.282;2024-03-22T07:22:22;12.40;99.90
27667;DHT22;15074;50.940;5.282;2024-03-22T07:24:48;12.40;99.90
27667;DHT22;15074;50.940;5.282;2024-03-22T07:27:15;12.50;99.90
27667;DHT22;15074;50.940;5.282;2024-03-22T07:29:44;12.60;99.90
27667;DHT22;15074;50.940;5.282;2024-03-22T07:32:10;12.60;99.90
27667;DHT22;15074;50.940;5.282;2024-03-22T07:34:36;12.60;99.90
27667;DHT22;15074;50.940;5.282;2024-03-22T07:37:01;12.60;99.90
27667;DHT22;15074;50.940;5.282;2024-03-22T07:39:27;12.60;99.90
27667;DHT22;15074;50.940;5.282;2024-03-22T07:41:52;12.60;99.90
27667;DHT22;15074;50.940;5.282;2024-03-22T07:44:18;12.60;99.90
27667;DHT22;15074;50.940;5.282;2024-03-22T07:46:45;12.70;99.90
27667;DHT22;15074;50.940;5.282;2024-03-22T07:49:14;12.70;99.90
27667;DHT22;15074;50.940;5.282;2024-03-22T07:51:40;12.80;99.90
27667;DHT22;15074;50.940;5.282;2024-03-22T07:54:06;12.80;99.90
27667;DHT22;15074;50.940;5.282;2024-03-22T07:56:31;12.80;99.90
27667;DHT22;15074;50.940;5.282;2024-03-22T07:58:57;12.70;99.90
27667;DHT22;15074;50.940;5.282;2024-03-22T08:01:23;12.90;99.90
27667;DHT22;15074;50.940;5.282;2024-03-22T08:03:49;12.80;99.90
27667;DHT22;15074;50.940;5.282;2024-03-22T08:06:15;12.80;99.90
27667;DHT22;15074;50.940;5.282;2024-03-22T08:08:41;12.80;99.90
27667;DHT22;15074;50.940;5.282;2024-03-22T08:11:06;12.80;99.90
27667;DHT22;15074;50.940;5.282;2024-03-22T08:13:32;12.90;99.90
27667;DHT22;15074;50.940;5.282;2024-03-22T08:15:57;13.10;99.90
27667;DHT22;15074;50.940;5.282;2024-03-22T08:18:23;13.30;99.90
27667;DHT22;15074;50.940;5.282;2024-03-22T08:20:49;13.60;99.90
27667;DHT22;15074;50.940;5.282;2024-03-22T08:23:14;13.90;99.90
27667;DHT22;15074;50.940;5.282;2024-03-22T08:25:40;13.90;99.90
27667;DHT22;15074;50.940;5.282;2024-03-22T08:28:07;14.00;99.90
27667;DHT22;15074;50.940;5.282;2024-03-22T08:30:33;13.80;99.90
27667;DHT22;15074;50.940;5.282;2024-03-22T08:32:58;13.80;99.90
27667;DHT22;15074;50.940;5.282;2024-03-22T08:35:24;13.90;99.90
27667;DHT22;15074;50.940;5.282;2024-03-22T08:37:49;13.80;99.90
27667;DHT22;15074;50.940;5.282;2024-03-22T08:40:15;13.70;99.90
27667;DHT22;15074;50.940;5.282;2024-03-22T08:42:41;13.70;99.90
27667;DHT22;15074;50.940;5.282;2024-03-22T08:45:07;13.80;99.90
27667;DHT22;15074;50.940;5.282;2024-03-22T08:47:33;13.90;99.90
27667;DHT22;15074;50.940;5.282;2024-03-22T08:49:59;14.00;99.90
27667;DHT22;15074;50.940;5.282;2024-03-22T08:52:25;14.30;99.90
27667;DHT22;15074;50.940;5.282;2024-03-22T08:54:52;14.40;99.90
27667;DHT22;15074;50.940;5.282;2024-03-22T08:57:18;14.40;99.90
27667;DHT22;15074;50.940;5.282;2024-03-22T08:59:45;14.40;99.90
27667;DHT22;15074;50.940;5.282;2024-03-22T09:02:11;14.30;99.90
27667;DHT22;15074;50.940;5.282;2024-03-22T09:04:37;14.30;99.90
27667;DHT22;15074;50.940;5.282;2024-03-22T09:07:03;14.00;99.90
27667;DHT22;15074;50.940;5.282;2024-03-22T09:09:28;13.90;99.90
27667;DHT22;15074;50.940;5.282;2024-03-22T09:11:54;13.90;99.90
27667;DHT22;15074;50.940;5.282;2024-03-22T09:14:20;14.00;99.90
27667;DHT22;15074;50.940;5.282;2024-03-22T09:16:45;14.00;99.90
27667;DHT22;15074;50.940;5.282;2024-03-22T09:19:11;13.90;99.90
27667;DHT22;15074;50.940;5.282;2024-03-22T09:21:37;14.20;99.90
27667;DHT22;15074;50.940;5.282;2024-03-22T09:24:02;14.30;99.90
27667;DHT22;15074;50.940;5.282;2024-03-22T09:26:32;14.40;99.90
27667;DHT22;15074;50.940;5.282;2024-03-22T09:28:58;14.70;99.90
27667;DHT22;15074;50.940;5.282;2024-03-22T09:31:24;14.80;99.90
27667;DHT22;15074;50.940;5.282;2024-03-22T09:33:49;14.90;99.90
27667;DHT22;15074;50.940;5.282;2024-03-22T09:36:15;14.90;99.90
27667;DHT22;15074;50.940;5.282;2024-03-22T09:38:41;15.00;99.90
27667;DHT22;15074;50.940;5.282;2024-03-22T09:41:07;14.90;99.90
27667;DHT22;15074;50.940;5.282;2024-03-22T09:43:33;14.90;99.90
27667;DHT22;15074;50.940;5.282;2024-03-22T09:46:03;14.80;99.90
27667;DHT22;15074;50.940;5.282;2024-03-22T09:48:29;14.80;99.90
27667;DHT22;15074;50.940;5.282;2024-03-22T09:50:55;14.70;99.90
27667;DHT22;15074;50.940;5.282;2024-03-22T09:53:21;14.50;99.90
27667;DHT22;15074;50.940;5.282;2024-03-22T09:55:49;14.20;99.90
27667;DHT22;15074;50.940;5.282;2024-03-22T09:58:17;14.00;99.90
27667;DHT22;15074;50.940;5.282;2024-03-22T10:00:43;14.30;99.90
27667;DHT22;15074;50.940;5.282;2024-03-22T10:03:10;14.50;99.90
27667;DHT22;15074;50.940;5.282;2024-03-22T10:05:36;14.30;99.90
27667;DHT22;15074;50.940;5.282;2024-03-22T10:08:03;13.90;99.90
27667;DHT22;15074;50.940;5.282;2024-03-22T10:10:31;14.00;99.90
27667;DHT22;15074;50.940;5.282;2024-03-22T10:12:57;14.30;99.90
27667;DHT22;15074;50.940;5.282;2024-03-22T10:15:23;14.60;99.90
27667;DHT22;15074;50.940;5.282;2024-03-22T10:17:49;14.80;99.90
27667;DHT22;15074;50.940;5.282;2024-03-22T10:20:15;14.50;99.90
27667;DHT22;15074;50.940;5.282;2024-03-22T10:22:57;14.00;99.90
27667;DHT22;15074;50.940;5.282;2024-03-22T10:25:26;14.20;99.90
27667;DHT22;15074;50.940;5.282;2024-03-22T10:27:55;14.40;99.90
27667;DHT22;15074;50.940;5.282;2024-03-22T10:30:22;14.60;99.90
27667;DHT22;15074;50.940;5.282;2024-03-22T10:32:49;14.90;99.90
27667;DHT22;15074;50.940;5.282;2024-03-22T10:35:15;15.20;99.90
27667;DHT22;15074;50.940;5.282;2024-03-22T10:37:42;15.30;99.90
27667;DHT22;15074;50.940;5.282;2024-03-22T10:40:08;15.40;99.90
27667;DHT22;15074;50.940;5.282;2024-03-22T10:42:35;16.10;99.90
27667;DHT22;15074;50.940;5.282;2024-03-22T10:45:06;16.40;99.90
27667;DHT22;15074;50.940;5.282;2024-03-22T10:47:34;15.80;99.90
27667;DHT22;15074;50.940;5.282;2024-03-22T10:50:10;15.60;99.90
27667;DHT22;15074;50.940;5.282;2024-03-22T10:55:07;15.80;99.90
27667;DHT22;15074;50.940;5.282;2024-03-22T10:57:34;15.90;99.90
27667;DHT22;15074;50.940;5.282;2024-03-22T11:00:09;15.50;99.90
27667;DHT22;15074;50.940;5.282;2024-03-22T11:02:38;15.60;99.90
27667;DHT22;15074;50.940;5.282;2024-03-22T11:05:04;15.70;99.90
27667;DHT22;15074;50.940;5.282;2024-03-22T11:07:32;15.60;99.90
27667;DHT22;15074;50.940;5.282;2024-03-22T11:10:01;15.30;99.90
27667;DHT22;15074;50.940;5.282;2024-03-22T11:12:30;15.50;99.90
27667;DHT22;15074;50.940;5.282;2024-03-22T11:14:59;15.40;99.90
27667;DHT22;15074;50.940;5.282;2024-03-22T11:17:25;15.50;99.90
27667;DHT22;15074;50.940;5.282;2024-03-22T11:19:51;15.30;99.90
27667;DHT22;15074;50.940;5.282;2024-03-22T11:22:18;15.40;99.90
27667;DHT22;15074;50.940;5.282;2024-03-22T11:24:44;15.40;99.90
27667;DHT22;15074;50.940;5.282;2024-03-22T11:27:10;15.50;99.90
27667;DHT22;15074;50.940;5.282;2024-03-22T11:29:37;15.60;99.90
27667;DHT22;15074;50.940;5.282;2024-03-22T11:32:07;15.50;99.90
27667;DHT22;15074;50.940;5.282;2024-03-22T11:34:37;15.40;99.90
27667;DHT22;15074;50.940;5.282;2024-03-22T11:37:03;15.40;99.90
27667;DHT22;15074;50.940;5.282;2024-03-22T11:39:30;15.30;99.90
27667;DHT22;15074;50.940;5.282;2024-03-22T11:41:56;15.20;99.90
27667;DHT22;15074;50.940;5.282;2024-03-22T11:44:22;15.00;99.90
27667;DHT22;15074;50.940;5.282;2024-03-22T11:46:51;15.00;99.90
27667;DHT22;15074;50.940;5.282;2024-03-22T11:49:17;15.00;99.90
27667;DHT22;15074;50.940;5.282;2024-03-22T11:51:43;15.10;99.90
27667;DHT22;15074;50.940;5.282;2024-03-22T11:54:10;15.10;99.90
27667;DHT22;15074;50.940;5.282;2024-03-22T11:56:35;15.00;99.90
27667;DHT22;15074;50.940;5.282;2024-03-22T11:59:02;15.10;99.90
27667;DHT22;15074;50.940;5.282;2024-03-22T12:01:29;15.00;99.90
27667;DHT22;15074;50.940;5.282;2024-03-22T12:03:55;14.90;99.90
27667;DHT22;15074;50.940;5.282;2024-03-22T12:06:21;14.80;99.90
27667;DHT22;15074;50.940;5.282;2024-03-22T12:08:48;14.80;99.90
27667;DHT22;15074;50.940;5.282;2024-03-22T12:11:13;14.70;99.90
27667;DHT22;15074;50.940;5.282;2024-03-22T12:13:39;14.50;99.90
27667;DHT22;15074;50.940;5.282;2024-03-22T12:16:06;14.60;99.90
27667;DHT22;15074;50.940;5.282;2024-03-22T12:18:32;14.60;99.90
27667;DHT22;15074;50.940;5.282;2024-03-22T12:20:59;14.80;99.90
27667;DHT22;15074;50.940;5.282;2024-03-22T12:23:25;14.80;99.90
27667;DHT22;15074;50.940;5.282;2024-03-22T12:25:51;14.80;99.90
27667;DHT22;15074;50.940;5.282;2024-03-22T12:28:20;14.70;99.90
27667;DHT22;15074;50.940;5.282;2024-03-22T12:30:46;14.80;99.90
27667;DHT22;15074;50.940;5.282;2024-03-22T12:33:12;14.70;99.90
27667;DHT22;15074;50.940;5.282;2024-03-22T12:35:39;14.60;99.90
27667;DHT22;15074;50.940;5.282;2024-03-22T12:38:05;14.70;99.90
27667;DHT22;15074;50.940;5.282;2024-03-22T12:40:31;14.90;99.90
27667;DHT22;15074;50.940;5.282;2024-03-22T12:42:59;15.00;99.90
27667;DHT22;15074;50.940;5.282;2024-03-22T12:45:25;15.10;99.90
27667;DHT22;15074;50.940;5.282;2024-03-22T12:47:51;15.00;99.90
27667;DHT22;15074;50.940;5.282;2024-03-22T12:50:17;15.20;99.90
27667;DHT22;15074;50.940;5.282;2024-03-22T12:52:42;15.20;99.90
27667;DHT22;15074;50.940;5.282;2024-03-22T12:55:10;15.20;99.90
27667;DHT22;15074;50.940;5.282;2024-03-22T12:57:35;15.30;99.90
27667;DHT22;15074;50.940;5.282;2024-03-22T13:00:01;15.30;99.90
27667;DHT22;15074;50.940;5.282;2024-03-22T13:02:27;15.20;99.90
27667;DHT22;15074;50.940;5.282;2024-03-22T13:04:53;15.10;99.90
27667;DHT22;15074;50.940;5.282;2024-03-22T13:07:21;14.90;99.90
27667;DHT22;15074;50.940;5.282;2024-03-22T13:09:47;14.80;99.90
27667;DHT22;15074;50.940;5.282;2024-03-22T13:12:13;14.60;99.90
27667;DHT22;15074;50.940;5.282;2024-03-22T13:14:39;14.60;99.90
27667;DHT22;15074;50.940;5.282;2024-03-22T13:17:04;14.60;99.90
27667;DHT22;15074;50.940;5.282;2024-03-22T13:19:30;14.50;99.90
27667;DHT22;15074;50.940;5.282;2024-03-22T13:21:55;14.30;99.90
27667;DHT22;15074;50.940;5.282;2024-03-22T13:24:21;14.40;99.90
27667;DHT22;15074;50.940;5.282;2024-03-22T13:26:47;14.50;99.90
27667;DHT22;15074;50.940;5.282;2024-03-22T13:29:13;14.50;99.90
27667;DHT22;15074;50.940;5.282;2024-03-22T13:31:39;14.30;99.90
27667;DHT22;15074;50.940;5.282;2024-03-22T13:34:05;14.20;99.90
27667;DHT22;15074;50.940;5.282;2024-03-22T13:36:31;14.20;99.90
27667;DHT22;15074;50.940;5.282;2024-03-22T13:38:58;14.10;99.90
27667;DHT22;15074;50.940;5.282;2024-03-22T13:41:24;14.10;99.90
27667;DHT22;15074;50.940;5.282;2024-03-22T13:43:49;13.90;99.90
27667;DHT22;15074;50.940;5.282;2024-03-22T13:46:15;14.00;99.90
27667;DHT22;15074;50.940;5.282;2024-03-22T13:48:42;14.00;99.90
27667;DHT22;15074;50.940;5.282;2024-03-22T13:51:08;13.90;99.90
27667;DHT22;15074;50.940;5.282;2024-03-22T13:53:34;13.90;99.90
27667;DHT22;15074;50.940;5.282;2024-03-22T13:56:00;13.90;99.90
27667;DHT22;15074;50.940;5.282;2024-03-22T13:58:26;13.90;99.90
27667;DHT22;15074;50.940;5.282;2024-03-22T14:00:53;13.80;99.90
27667;DHT22;15074;50.940;5.282;2024-03-22T14:03:18;13.80;99.90
27667;DHT22;15074;50.940;5.282;2024-03-22T14:05:44;13.70;99.90
27667;DHT22;15074;50.940;5.282;2024-03-22T14:08:10;13.80;99.90
27667;DHT22;15074;50.940;5.282;2024-03-22T14:10:36;13.70;99.90
27667;DHT22;15074;50.940;5.282;2024-03-22T14:13:02;13.60;99.90
27667;DHT22;15074;50.940;5.282;2024-03-22T14:15:29;13.50;99.90
27667;DHT22;15074;50.940;5.282;2024-03-22T14:17:57;13.50;99.90
27667;DHT22;15074;50.940;5.282;2024-03-22T14:20:23;13.60;99.90
27667;DHT22;15074;50.940;5.282;2024-03-22T14:22:50;13.50;99.90
27667;DHT22;15074;50.940;5.282;2024-03-22T14:25:16;13.40;99.90
27667;DHT22;15074;50.940;5.282;2024-03-22T14:27:42;13.30;99.90
27667;DHT22;15074;50.940;5.282;2024-03-22T14:30:12;13.30;99.90
27667;DHT22;15074;50.940;5.282;2024-03-22T14:32:41;13.20;99.90
27667;DHT22;15074;50.940;5.282;2024-03-22T14:35:07;13.20;99.90
27667;DHT22;15074;50.940;5.282;2024-03-22T14:37:34;13.10;99.90
27667;DHT22;15074;50.940;5.282;2024-03-22T14:39:59;12.90;99.90
27667;DHT22;15074;50.940;5.282;2024-03-22T14:42:25;12.90;99.90
27667;DHT22;15074;50.940;5.282;2024-03-22T14:44:52;12.80;99.90
27667;DHT22;15074;50.940;5.282;2024-03-22T14:47:17;12.80;99.90
27667;DHT22;15074;50.940;5.282;2024-03-22T14:49:44;12.80;99.90
27667;DHT22;15074;50.940;5.282;2024-03-22T14:52:10;12.80;99.90
27667;DHT22;15074;50.940;5.282;2024-03-22T14:54:35;12.80;99.90
27667;DHT22;15074;50.940;5.282;2024-03-22T14:57:01;12.80;99.90
27667;DHT22;15074;50.940;5.282;2024-03-22T14:59:30;12.90;99.90
27667;DHT22;15074;50.940;5.282;2024-03-22T15:01:55;12.90;99.90
27667;DHT22;15074;50.940;5.282;2024-03-22T15:04:22;12.80;99.90
27667;DHT22;15074;50.940;5.282;2024-03-22T15:06:47;12.70;99.90
27667;DHT22;15074;50.940;5.282;2024-03-22T15:09:19;12.80;99.90
27667;DHT22;15074;50.940;5.282;2024-03-22T15:11:45;12.80;99.90
27667;DHT22;15074;50.940;5.282;2024-03-22T15:14:12;12.50;99.90
27667;DHT22;15074;50.940;5.282;2024-03-22T15:16:39;12.50;99.90
27667;DHT22;15074;50.940;5.282;2024-03-22T15:19:04;12.60;99.90
27667;DHT22;15074;50.940;5.282;2024-03-22T15:21:30;12.60;99.90
27667;DHT22;15074;50.940;5.282;2024-03-22T15:23:56;12.50;99.90
27667;DHT22;15074;50.940;5.282;2024-03-22T15:26:21;12.60;99.90